sensor_id;sensor_type;location;lat;lon;timestamp;temperature;humidity
36690;DHT22;22676;51.120;3.702;2023-04-15T00:01:46;25.00;39.00
36690;DHT22;22676;51.120;3.702;2023-04-15T00:04:12;24.90;39.10
36690;DHT22;22676;51.120;3.702;2023-04-15T00:06:38;24.80;39.20
36690;DHT22;22676;51.120;3.702;2023-04-15T00:09:06;24.90;39.20
36690;DHT22;22676;51.120;3.702;2023-04-15T00:11:32;24.90;39.10
36690;DHT22;22676;51.120;3.702;2023-04-15T00:13:58;24.90;39.20
36690;DHT22;22676;51.120;3.702;2023-04-15T00:16:24;24.80;39.20
36690;DHT22;22676;51.120;3.702;2023-04-15T00:18:49;24.90;39.30
36690;DHT22;22676;51.120;3.702;2023-04-15T00:21:16;24.90;39.20
36690;DHT22;22676;51.120;3.702;2023-04-15T00:23:41;24.90;39.20
36690;DHT22;22676;51.120;3.702;2023-04-15T00:26:07;24.80;38.90
36690;DHT22;22676;51.120;3.702;2023-04-15T00:28:32;24.80;39.00
36690;DHT22;22676;51.120;3.702;2023-04-15T00:30:58;24.60;39.40
36690;DHT22;22676;51.120;3.702;2023-04-15T00:33:24;24.60;39.40
36690;DHT22;22676;51.120;3.702;2023-04-15T00:35:49;24.60;39.40
36690;DHT22;22676;51.120;3.702;2023-04-15T00:38:15;24.70;39.40
36690;DHT22;22676;51.120;3.702;2023-04-15T00:40:40;24.70;39.30
36690;DHT22;22676;51.120;3.702;2023-04-15T00:43:06;24.70;39.20
36690;DHT22;22676;51.120;3.702;2023-04-15T00:45:32;24.80;39.20
36690;DHT22;22676;51.120;3.702;2023-04-15T00:47:58;24.80;39.20
36690;DHT22;22676;51.120;3.702;2023-04-15T00:50:24;24.80;39.20
36690;DHT22;22676;51.120;3.702;2023-04-15T00:52:49;24.90;39.10
36690;DHT22;22676;51.120;3.702;2023-04-15T00:55:15;24.80;39.20
36690;DHT22;22676;51.120;3.702;2023-04-15T00:57:40;24.90;39.00
36690;DHT22;22676;51.120;3.702;2023-04-15T01:00:06;25.00;38.90
36690;DHT22;22676;51.120;3.702;2023-04-15T01:02:33;25.00;38.80
36690;DHT22;22676;51.120;3.702;2023-04-15T01:04:59;25.00;38.70
36690;DHT22;22676;51.120;3.702;2023-04-15T01:07:24;24.90;38.90
36690;DHT22;22676;51.120;3.702;2023-04-15T01:09:50;24.80;39.10
36690;DHT22;22676;51.120;3.702;2023-04-15T01:12:16;24.80;39.10
36690;DHT22;22676;51.120;3.702;2023-04-15T01:14:42;24.80;39.20
36690;DHT22;22676;51.120;3.702;2023-04-15T01:17:07;24.80;39.00
36690;DHT22;22676;51.120;3.702;2023-04-15T01:19:34;24.80;38.90
36690;DHT22;22676;51.120;3.702;2023-04-15T01:22:01;24.90;38.90
36690;DHT22;22676;51.120;3.702;2023-04-15T01:24:27;24.80;38.70
36690;DHT22;22676;51.120;3.702;2023-04-15T01:26:54;24.90;38.60
36690;DHT22;22676;51.120;3.702;2023-04-15T01:29:20;24.80;38.50
36690;DHT22;22676;51.120;3.702;2023-04-15T01:31:52;24.80;39.00
36690;DHT22;22676;51.120;3.702;2023-04-15T01:34:18;24.70;39.10
36690;DHT22;22676;51.120;3.702;2023-04-15T01:36:43;24.70;39.10
36690;DHT22;22676;51.120;3.702;2023-04-15T01:39:09;24.70;39.00
36690;DHT22;22676;51.120;3.702;2023-04-15T01:41:35;24.70;39.10
36690;DHT22;22676;51.120;3.702;2023-04-15T01:44:00;24.70;39.00
36690;DHT22;22676;51.120;3.702;2023-04-15T01:46:26;24.80;38.80
36690;DHT22;22676;51.120;3.702;2023-04-15T01:48:51;24.90;38.70
36690;DHT22;22676;51.120;3.702;2023-04-15T01:51:17;24.90;38.80
36690;DHT22;22676;51.120;3.702;2023-04-15T01:53:43;24.90;38.80
36690;DHT22;22676;51.120;3.702;2023-04-15T01:56:08;24.80;38.80
36690;DHT22;22676;51.120;3.702;2023-04-15T01:58:34;24.90;38.60
36690;DHT22;22676;51.120;3.702;2023-04-15T02:00:59;25.00;38.50
36690;DHT22;22676;51.120;3.702;2023-04-15T02:03:25;25.00;38.50
36690;DHT22;22676;51.120;3.702;2023-04-15T02:05:51;25.00;38.60
36690;DHT22;22676;51.120;3.702;2023-04-15T02:08:17;24.80;38.70
36690;DHT22;22676;51.120;3.702;2023-04-15T02:10:42;24.80;39.50
36690;DHT22;22676;51.120;3.702;2023-04-15T02:13:08;24.90;38.70
36690;DHT22;22676;51.120;3.702;2023-04-15T02:15:35;24.70;38.80
36690;DHT22;22676;51.120;3.702;2023-04-15T02:18:00;24.60;39.00
36690;DHT22;22676;51.120;3.702;2023-04-15T02:20:26;24.60;39.20
36690;DHT22;22676;51.120;3.702;2023-04-15T02:22:52;24.60;39.20
36690;DHT22;22676;51.120;3.702;2023-04-15T02:25:18;24.50;39.20
36690;DHT22;22676;51.120;3.702;2023-04-15T02:27:44;24.50;39.00
36690;DHT22;22676;51.120;3.702;2023-04-15T02:30:10;24.50;39.00
36690;DHT22;22676;51.120;3.702;2023-04-15T02:32:36;24.50;39.30
36690;DHT22;22676;51.120;3.702;2023-04-15T02:35:05;24.40;39.40
36690;DHT22;22676;51.120;3.702;2023-04-15T02:37:31;24.40;39.40
36690;DHT22;22676;51.120;3.702;2023-04-15T02:40:01;24.50;39.20
36690;DHT22;22676;51.120;3.702;2023-04-15T02:42:27;24.60;39.20
36690;DHT22;22676;51.120;3.702;2023-04-15T02:44:54;24.60;39.00
36690;DHT22;22676;51.120;3.702;2023-04-15T02:47:20;24.50;39.00
36690;DHT22;22676;51.120;3.702;2023-04-15T02:49:46;24.40;39.30
36690;DHT22;22676;51.120;3.702;2023-04-15T02:52:11;24.50;39.30
36690;DHT22;22676;51.120;3.702;2023-04-15T02:54:38;24.50;39.10
36690;DHT22;22676;51.120;3.702;2023-04-15T02:57:03;24.60;39.10
36690;DHT22;22676;51.120;3.702;2023-04-15T02:59:31;24.60;39.00
36690;DHT22;22676;51.120;3.702;2023-04-15T03:01:56;24.50;39.20
36690;DHT22;22676;51.120;3.702;2023-04-15T03:04:25;24.60;39.10
36690;DHT22;22676;51.120;3.702;2023-04-15T03:06:50;24.60;39.10
36690;DHT22;22676;51.120;3.702;2023-04-15T03:09:16;24.50;39.20
36690;DHT22;22676;51.120;3.702;2023-04-15T03:11:42;24.60;39.20
36690;DHT22;22676;51.120;3.702;2023-04-15T03:14:07;24.50;39.20
36690;DHT22;22676;51.120;3.702;2023-04-15T03:16:33;24.60;39.10
36690;DHT22;22676;51.120;3.702;2023-04-15T03:18:58;24.50;39.30
36690;DHT22;22676;51.120;3.702;2023-04-15T03:21:24;24.40;39.40
36690;DHT22;22676;51.120;3.702;2023-04-15T03:23:50;24.50;39.50
36690;DHT22;22676;51.120;3.702;2023-04-15T03:26:26;24.50;39.20
36690;DHT22;22676;51.120;3.702;2023-04-15T03:28:52;24.40;39.00
36690;DHT22;22676;51.120;3.702;2023-04-15T03:31:18;24.10;39.60
36690;DHT22;22676;51.120;3.702;2023-04-15T03:33:43;24.10;39.70
36690;DHT22;22676;51.120;3.702;2023-04-15T03:36:09;24.00;39.70
36690;DHT22;22676;51.120;3.702;2023-04-15T03:38:35;24.00;39.90
36690;DHT22;22676;51.120;3.702;2023-04-15T03:41:00;23.90;40.00
36690;DHT22;22676;51.120;3.702;2023-04-15T03:43:26;23.90;40.10
36690;DHT22;22676;51.120;3.702;2023-04-15T03:45:52;23.80;40.20
36690;DHT22;22676;51.120;3.702;2023-04-15T03:48:17;23.80;40.20
36690;DHT22;22676;51.120;3.702;2023-04-15T03:50:43;23.90;40.10
36690;DHT22;22676;51.120;3.702;2023-04-15T03:53:08;23.80;40.20
36690;DHT22;22676;51.120;3.702;2023-04-15T03:55:34;23.80;40.10
36690;DHT22;22676;51.120;3.702;2023-04-15T03:57:59;23.80;40.10
36690;DHT22;22676;51.120;3.702;2023-04-15T04:00:25;23.80;40.10
36690;DHT22;22676;51.120;3.702;2023-04-15T04:02:51;23.70;40.30
36690;DHT22;22676;51.120;3.702;2023-04-15T04:05:16;23.70;40.40
36690;DHT22;22676;51.120;3.702;2023-04-15T04:07:42;23.70;40.40
36690;DHT22;22676;51.120;3.702;2023-04-15T04:10:07;23.60;41.10
36690;DHT22;22676;51.120;3.702;2023-04-15T04:12:33;23.50;40.60
36690;DHT22;22676;51.120;3.702;2023-04-15T04:14:58;23.50;40.80
36690;DHT22;22676;51.120;3.702;2023-04-15T04:17:24;23.50;40.80
36690;DHT22;22676;51.120;3.702;2023-04-15T04:19:49;23.50;40.80
36690;DHT22;22676;51.120;3.702;2023-04-15T04:22:15;23.50;40.80
36690;DHT22;22676;51.120;3.702;2023-04-15T04:24:40;23.40;40.70
36690;DHT22;22676;51.120;3.702;2023-04-15T04:27:06;23.30;40.70
36690;DHT22;22676;51.120;3.702;2023-04-15T04:29:32;23.30;40.70
36690;DHT22;22676;51.120;3.702;2023-04-15T04:31:57;23.20;41.00
36690;DHT22;22676;51.120;3.702;2023-04-15T04:34:23;23.30;40.80
36690;DHT22;22676;51.120;3.702;2023-04-15T04:36:48;23.30;40.80
36690;DHT22;22676;51.120;3.702;2023-04-15T04:39:14;23.30;40.80
36690;DHT22;22676;51.120;3.702;2023-04-15T04:41:39;23.30;40.90
36690;DHT22;22676;51.120;3.702;2023-04-15T04:44:05;23.30;41.00
36690;DHT22;22676;51.120;3.702;2023-04-15T04:46:31;23.20;41.10
36690;DHT22;22676;51.120;3.702;2023-04-15T04:48:56;23.20;41.70
36690;DHT22;22676;51.120;3.702;2023-04-15T04:51:22;23.10;41.10
36690;DHT22;22676;51.120;3.702;2023-04-15T04:53:47;23.00;41.20
36690;DHT22;22676;51.120;3.702;2023-04-15T04:56:13;23.10;41.30
36690;DHT22;22676;51.120;3.702;2023-04-15T04:58:38;23.00;41.30
36690;DHT22;22676;51.120;3.702;2023-04-15T05:01:04;23.00;41.40
36690;DHT22;22676;51.120;3.702;2023-04-15T05:03:30;22.90;41.50
36690;DHT22;22676;51.120;3.702;2023-04-15T05:05:55;23.00;41.50
36690;DHT22;22676;51.120;3.702;2023-04-15T05:08:21;23.00;41.50
36690;DHT22;22676;51.120;3.702;2023-04-15T05:10:47;22.80;41.50
36690;DHT22;22676;51.120;3.702;2023-04-15T05:13:12;22.60;42.00
36690;DHT22;22676;51.120;3.702;2023-04-15T05:15:38;22.70;42.00
36690;DHT22;22676;51.120;3.702;2023-04-15T05:18:05;22.80;41.90
36690;DHT22;22676;51.120;3.702;2023-04-15T05:20:31;22.80;41.60
36690;DHT22;22676;51.120;3.702;2023-04-15T05:22:56;22.80;41.60
36690;DHT22;22676;51.120;3.702;2023-04-15T05:25:22;23.10;41.10
36690;DHT22;22676;51.120;3.702;2023-04-15T05:27:47;23.30;40.80
36690;DHT22;22676;51.120;3.702;2023-04-15T05:30:13;23.40;40.50
36690;DHT22;22676;51.120;3.702;2023-04-15T05:32:39;23.40;40.50
36690;DHT22;22676;51.120;3.702;2023-04-15T05:35:05;23.60;40.30
36690;DHT22;22676;51.120;3.702;2023-04-15T05:37:30;23.60;40.30
36690;DHT22;22676;51.120;3.702;2023-04-15T05:39:56;23.70;40.10
36690;DHT22;22676;51.120;3.702;2023-04-15T05:42:22;23.80;39.90
36690;DHT22;22676;51.120;3.702;2023-04-15T05:44:47;24.00;40.40
36690;DHT22;22676;51.120;3.702;2023-04-15T05:47:13;24.10;39.70
36690;DHT22;22676;51.120;3.702;2023-04-15T05:49:38;24.20;39.50
36690;DHT22;22676;51.120;3.702;2023-04-15T05:52:04;24.30;39.30
36690;DHT22;22676;51.120;3.702;2023-04-15T05:54:30;24.40;39.20
36690;DHT22;22676;51.120;3.702;2023-04-15T05:56:55;24.40;39.20
36690;DHT22;22676;51.120;3.702;2023-04-15T05:59:21;24.50;39.10
36690;DHT22;22676;51.120;3.702;2023-04-15T06:01:47;24.50;39.10
36690;DHT22;22676;51.120;3.702;2023-04-15T06:04:13;24.60;39.10
36690;DHT22;22676;51.120;3.702;2023-04-15T06:06:39;24.60;38.90
36690;DHT22;22676;51.120;3.702;2023-04-15T06:09:05;24.70;39.00
36690;DHT22;22676;51.120;3.702;2023-04-15T06:11:30;24.70;38.90
36690;DHT22;22676;51.120;3.702;2023-04-15T06:13:56;24.80;38.80
36690;DHT22;22676;51.120;3.702;2023-04-15T06:16:22;24.80;38.80
36690;DHT22;22676;51.120;3.702;2023-04-15T06:18:47;24.90;38.80
36690;DHT22;22676;51.120;3.702;2023-04-15T06:21:13;25.00;38.70
36690;DHT22;22676;51.120;3.702;2023-04-15T06:23:39;25.00;38.70
36690;DHT22;22676;51.120;3.702;2023-04-15T06:26:05;25.00;38.90
36690;DHT22;22676;51.120;3.702;2023-04-15T06:28:31;25.00;38.40
36690;DHT22;22676;51.120;3.702;2023-04-15T06:30:56;25.00;38.50
36690;DHT22;22676;51.120;3.702;2023-04-15T06:33:22;25.10;38.60
36690;DHT22;22676;51.120;3.702;2023-04-15T06:35:47;25.10;38.60
36690;DHT22;22676;51.120;3.702;2023-04-15T06:38:13;25.10;38.50
36690;DHT22;22676;51.120;3.702;2023-04-15T06:40:39;25.10;38.70
36690;DHT22;22676;51.120;3.702;2023-04-15T06:43:05;25.20;38.80
36690;DHT22;22676;51.120;3.702;2023-04-15T06:45:30;25.20;38.60
36690;DHT22;22676;51.120;3.702;2023-04-15T06:47:56;25.20;38.70
36690;DHT22;22676;51.120;3.702;2023-04-15T06:50:22;25.30;38.80
36690;DHT22;22676;51.120;3.702;2023-04-15T06:52:47;25.20;38.90
36690;DHT22;22676;51.120;3.702;2023-04-15T06:55:13;25.30;38.90
36690;DHT22;22676;51.120;3.702;2023-04-15T06:57:39;25.30;38.90
36690;DHT22;22676;51.120;3.702;2023-04-15T07:00:04;25.30;39.10
36690;DHT22;22676;51.120;3.702;2023-04-15T07:02:30;25.30;39.00
36690;DHT22;22676;51.120;3.702;2023-04-15T07:04:56;25.40;38.90
36690;DHT22;22676;51.120;3.702;2023-04-15T07:07:21;25.50;39.00
36690;DHT22;22676;51.120;3.702;2023-04-15T07:09:47;25.50;39.30
36690;DHT22;22676;51.120;3.702;2023-04-15T07:12:12;25.40;39.40
36690;DHT22;22676;51.120;3.702;2023-04-15T07:14:38;25.30;39.60
36690;DHT22;22676;51.120;3.702;2023-04-15T07:17:04;25.20;39.80
36690;DHT22;22676;51.120;3.702;2023-04-15T07:19:29;25.20;39.90
36690;DHT22;22676;51.120;3.702;2023-04-15T07:21:55;25.10;40.90
36690;DHT22;22676;51.120;3.702;2023-04-15T07:24:20;25.10;40.40
36690;DHT22;22676;51.120;3.702;2023-04-15T07:26:47;25.20;39.60
36690;DHT22;22676;51.120;3.702;2023-04-15T07:29:13;25.10;39.70
36690;DHT22;22676;51.120;3.702;2023-04-15T07:31:38;25.00;40.00
36690;DHT22;22676;51.120;3.702;2023-04-15T07:34:05;24.90;40.10
36690;DHT22;22676;51.120;3.702;2023-04-15T07:36:30;24.80;40.30
36690;DHT22;22676;51.120;3.702;2023-04-15T07:38:56;24.80;40.50
36690;DHT22;22676;51.120;3.702;2023-04-15T07:41:22;24.80;40.50
36690;DHT22;22676;51.120;3.702;2023-04-15T07:43:47;24.80;40.60
36690;DHT22;22676;51.120;3.702;2023-04-15T07:46:13;24.80;40.80
36690;DHT22;22676;51.120;3.702;2023-04-15T07:48:39;24.80;40.40
36690;DHT22;22676;51.120;3.702;2023-04-15T07:51:04;25.00;39.50
36690;DHT22;22676;51.120;3.702;2023-04-15T07:53:30;25.00;39.30
36690;DHT22;22676;51.120;3.702;2023-04-15T07:55:57;25.00;39.30
36690;DHT22;22676;51.120;3.702;2023-04-15T07:58:23;24.80;39.90
36690;DHT22;22676;51.120;3.702;2023-04-15T08:00:48;24.80;39.80
36690;DHT22;22676;51.120;3.702;2023-04-15T08:03:14;24.60;40.30
36690;DHT22;22676;51.120;3.702;2023-04-15T08:05:39;24.60;40.20
36690;DHT22;22676;51.120;3.702;2023-04-15T08:08:05;24.70;40.40
36690;DHT22;22676;51.120;3.702;2023-04-15T08:10:31;24.50;40.60
36690;DHT22;22676;51.120;3.702;2023-04-15T08:12:56;24.40;40.70
36690;DHT22;22676;51.120;3.702;2023-04-15T08:15:22;24.40;41.00
36690;DHT22;22676;51.120;3.702;2023-04-15T08:17:48;24.60;40.80
36690;DHT22;22676;51.120;3.702;2023-04-15T08:20:14;24.50;40.90
36690;DHT22;22676;51.120;3.702;2023-04-15T08:22:39;24.60;41.00
36690;DHT22;22676;51.120;3.702;2023-04-15T08:25:06;24.60;40.80
36690;DHT22;22676;51.120;3.702;2023-04-15T08:27:31;24.70;40.60
36690;DHT22;22676;51.120;3.702;2023-04-15T08:29:57;24.70;40.60
36690;DHT22;22676;51.120;3.702;2023-04-15T08:32:22;24.40;41.00
36690;DHT22;22676;51.120;3.702;2023-04-15T08:34:48;24.60;41.20
36690;DHT22;22676;51.120;3.702;2023-04-15T08:37:13;24.50;41.00
36690;DHT22;22676;51.120;3.702;2023-04-15T08:39:39;24.60;41.00
36690;DHT22;22676;51.120;3.702;2023-04-15T08:42:06;24.50;41.10
36690;DHT22;22676;51.120;3.702;2023-04-15T08:44:33;24.60;41.70
36690;DHT22;22676;51.120;3.702;2023-04-15T08:47:00;24.50;41.70
36690;DHT22;22676;51.120;3.702;2023-04-15T08:49:25;24.40;43.20
36690;DHT22;22676;51.120;3.702;2023-04-15T08:51:52;24.40;43.20
36690;DHT22;22676;51.120;3.702;2023-04-15T08:54:19;24.40;43.30
36690;DHT22;22676;51.120;3.702;2023-04-15T08:56:44;24.30;43.60
36690;DHT22;22676;51.120;3.702;2023-04-15T08:59:10;24.30;42.90
36690;DHT22;22676;51.120;3.702;2023-04-15T09:01:36;24.50;43.10
36690;DHT22;22676;51.120;3.702;2023-04-15T09:04:02;24.50;42.80
36690;DHT22;22676;51.120;3.702;2023-04-15T09:06:30;24.50;42.90
36690;DHT22;22676;51.120;3.702;2023-04-15T09:08:56;24.30;42.80
36690;DHT22;22676;51.120;3.702;2023-04-15T09:11:21;24.30;43.10
36690;DHT22;22676;51.120;3.702;2023-04-15T09:13:47;24.50;42.50
36690;DHT22;22676;51.120;3.702;2023-04-15T09:16:13;24.30;43.30
36690;DHT22;22676;51.120;3.702;2023-04-15T09:18:39;24.30;42.50
36690;DHT22;22676;51.120;3.702;2023-04-15T09:21:05;24.20;42.70
36690;DHT22;22676;51.120;3.702;2023-04-15T09:23:33;24.10;42.90
36690;DHT22;22676;51.120;3.702;2023-04-15T09:25:59;24.20;42.50
36690;DHT22;22676;51.120;3.702;2023-04-15T09:28:25;24.30;42.30
36690;DHT22;22676;51.120;3.702;2023-04-15T09:33:22;24.20;43.00
36690;DHT22;22676;51.120;3.702;2023-04-15T09:36:01;24.30;42.90
36690;DHT22;22676;51.120;3.702;2023-04-15T09:38:26;24.40;43.10
36690;DHT22;22676;51.120;3.702;2023-04-15T09:40:52;24.50;43.00
36690;DHT22;22676;51.120;3.702;2023-04-15T09:43:18;24.30;43.10
36690;DHT22;22676;51.120;3.702;2023-04-15T09:45:47;24.30;43.10
36690;DHT22;22676;51.120;3.702;2023-04-15T09:48:17;24.40;43.40
36690;DHT22;22676;51.120;3.702;2023-04-15T09:50:43;24.30;43.00
36690;DHT22;22676;51.120;3.702;2023-04-15T09:53:09;24.10;43.20
36690;DHT22;22676;51.120;3.702;2023-04-15T09:55:36;23.90;43.60
36690;DHT22;22676;51.120;3.702;2023-04-15T09:58:01;23.90;44.00
36690;DHT22;22676;51.120;3.702;2023-04-15T10:00:27;23.80;43.70
36690;DHT22;22676;51.120;3.702;2023-04-15T10:02:53;23.90;43.80
36690;DHT22;22676;51.120;3.702;2023-04-15T10:05:19;23.80;43.60
36690;DHT22;22676;51.120;3.702;2023-04-15T10:07:45;23.80;43.60
36690;DHT22;22676;51.120;3.702;2023-04-15T10:10:11;23.70;43.80
36690;DHT22;22676;51.120;3.702;2023-04-15T10:12:37;23.80;44.10
36690;DHT22;22676;51.120;3.702;2023-04-15T10:15:05;23.90;43.90
36690;DHT22;22676;51.120;3.702;2023-04-15T10:17:31;24.00;44.20
36690;DHT22;22676;51.120;3.702;2023-04-15T10:20:02;24.10;43.80
36690;DHT22;22676;51.120;3.702;2023-04-15T10:22:29;24.00;44.10
36690;DHT22;22676;51.120;3.702;2023-04-15T10:24:58;24.10;43.30
36690;DHT22;22676;51.120;3.702;2023-04-15T10:27:25;24.10;43.10
36690;DHT22;22676;51.120;3.702;2023-04-15T10:29:51;24.00;43.00
36690;DHT22;22676;51.120;3.702;2023-04-15T10:32:19;23.90;43.50
36690;DHT22;22676;51.120;3.702;2023-04-15T10:34:46;23.90;44.10
36690;DHT22;22676;51.120;3.702;2023-04-15T10:37:12;23.90;44.00
36690;DHT22;22676;51.120;3.702;2023-04-15T10:39:39;24.00;44.30
36690;DHT22;22676;51.120;3.702;2023-04-15T10:42:08;24.00;44.60
36690;DHT22;22676;51.120;3.702;2023-04-15T10:44:35;24.10;44.50
36690;DHT22;22676;51.120;3.702;2023-04-15T10:47:03;24.20;44.40
36690;DHT22;22676;51.120;3.702;2023-04-15T10:49:29;24.30;44.50
36690;DHT22;22676;51.120;3.702;2023-04-15T10:51:58;24.30;44.40
36690;DHT22;22676;51.120;3.702;2023-04-15T11:02:00;24.10;43.80
36690;DHT22;22676;51.120;3.702;2023-04-15T11:07:10;24.10;44.30
36690;DHT22;22676;51.120;3.702;2023-04-15T11:09:35;24.20;44.10
36690;DHT22;22676;51.120;3.702;2023-04-15T11:12:05;24.20;43.90
36690;DHT22;22676;51.120;3.702;2023-04-15T11:14:35;24.10;43.90
36690;DHT22;22676;51.120;3.702;2023-04-15T11:17:03;24.10;44.00
36690;DHT22;22676;51.120;3.702;2023-04-15T11:19:37;24.30;43.90
36690;DHT22;22676;51.120;3.702;2023-04-15T11:22:07;24.40;43.70
36690;DHT22;22676;51.120;3.702;2023-04-15T11:24:32;24.40;43.60
36690;DHT22;22676;51.120;3.702;2023-04-15T11:26:58;24.60;43.00
36690;DHT22;22676;51.120;3.702;2023-04-15T11:29:31;24.70;42.20
36690;DHT22;22676;51.120;3.702;2023-04-15T11:32:04;24.70;42.60
36690;DHT22;22676;51.120;3.702;2023-04-15T11:34:30;24.70;42.70
36690;DHT22;22676;51.120;3.702;2023-04-15T11:36:56;24.70;42.70
36690;DHT22;22676;51.120;3.702;2023-04-15T11:39:22;24.80;42.60
36690;DHT22;22676;51.120;3.702;2023-04-15T11:41:48;24.90;42.50
36690;DHT22;22676;51.120;3.702;2023-04-15T11:44:17;25.00;42.40
36690;DHT22;22676;51.120;3.702;2023-04-15T11:46:45;25.10;42.40
36690;DHT22;22676;51.120;3.702;2023-04-15T11:49:11;25.20;42.30
36690;DHT22;22676;51.120;3.702;2023-04-15T11:51:36;25.20;42.20
36690;DHT22;22676;51.120;3.702;2023-04-15T11:54:02;25.30;42.20
36690;DHT22;22676;51.120;3.702;2023-04-15T11:56:27;25.40;42.20
36690;DHT22;22676;51.120;3.702;2023-04-15T11:58:54;25.40;42.00
36690;DHT22;22676;51.120;3.702;2023-04-15T12:01:29;25.50;42.10
36690;DHT22;22676;51.120;3.702;2023-04-15T12:03:55;25.50;42.10
36690;DHT22;22676;51.120;3.702;2023-04-15T12:06:21;25.60;42.20
36690;DHT22;22676;51.120;3.702;2023-04-15T12:11:38;25.60;42.10
36690;DHT22;22676;51.120;3.702;2023-04-15T12:16:53;25.80;41.90
36690;DHT22;22676;51.120;3.702;2023-04-15T12:19:26;25.70;41.70
36690;DHT22;22676;51.120;3.702;2023-04-15T12:21:52;25.80;41.60
36690;DHT22;22676;51.120;3.702;2023-04-15T12:24:19;26.00;41.30
36690;DHT22;22676;51.120;3.702;2023-04-15T12:26:46;26.10;40.70
36690;DHT22;22676;51.120;3.702;2023-04-15T12:29:12;26.00;40.20
36690;DHT22;22676;51.120;3.702;2023-04-15T12:31:51;26.00;40.60
36690;DHT22;22676;51.120;3.702;2023-04-15T12:34:17;26.00;40.50
36690;DHT22;22676;51.120;3.702;2023-04-15T12:36:43;25.80;40.70
36690;DHT22;22676;51.120;3.702;2023-04-15T12:39:08;25.80;40.90
36690;DHT22;22676;51.120;3.702;2023-04-15T12:41:34;25.70;41.00
36690;DHT22;22676;51.120;3.702;2023-04-15T12:43:59;25.60;41.10
36690;DHT22;22676;51.120;3.702;2023-04-15T12:46:25;25.60;41.10
36690;DHT22;22676;51.120;3.702;2023-04-15T12:48:51;25.70;41.00
36690;DHT22;22676;51.120;3.702;2023-04-15T12:51:17;25.80;41.00
36690;DHT22;22676;51.120;3.702;2023-04-15T12:53:43;25.80;40.90
36690;DHT22;22676;51.120;3.702;2023-04-15T12:56:08;25.90;40.70
36690;DHT22;22676;51.120;3.702;2023-04-15T12:58:34;25.80;40.80
36690;DHT22;22676;51.120;3.702;2023-04-15T13:01:00;25.80;40.70
36690;DHT22;22676;51.120;3.702;2023-04-15T13:03:25;25.90;40.80
36690;DHT22;22676;51.120;3.702;2023-04-15T13:05:51;25.90;40.80
36690;DHT22;22676;51.120;3.702;2023-04-15T13:08:17;25.90;40.70
36690;DHT22;22676;51.120;3.702;2023-04-15T13:10:43;25.80;40.80
36690;DHT22;22676;51.120;3.702;2023-04-15T13:13:08;25.80;40.80
36690;DHT22;22676;51.120;3.702;2023-04-15T13:15:34;25.60;40.80
36690;DHT22;22676;51.120;3.702;2023-04-15T13:18:00;25.60;40.90
36690;DHT22;22676;51.120;3.702;2023-04-15T13:20:26;25.60;41.00
36690;DHT22;22676;51.120;3.702;2023-04-15T13:22:52;25.50;41.00
36690;DHT22;22676;51.120;3.702;2023-04-15T13:25:18;25.40;40.70
36690;DHT22;22676;51.120;3.702;2023-04-15T13:27:43;25.40;40.80
36690;DHT22;22676;51.120;3.702;2023-04-15T13:30:09;25.40;40.20
36690;DHT22;22676;51.120;3.702;2023-04-15T13:32:35;25.30;40.60
36690;DHT22;22676;51.120;3.702;2023-04-15T13:35:00;25.40;40.50
36690;DHT22;22676;51.120;3.702;2023-04-15T13:37:26;25.40;40.50
36690;DHT22;22676;51.120;3.702;2023-04-15T13:39:52;25.40;40.50
36690;DHT22;22676;51.120;3.702;2023-04-15T13:42:18;25.30;40.60
36690;DHT22;22676;51.120;3.702;2023-04-15T13:44:43;25.30;40.60
36690;DHT22;22676;51.120;3.702;2023-04-15T13:47:09;25.40;40.50
36690;DHT22;22676;51.120;3.702;2023-04-15T13:49:35;25.30;40.70
36690;DHT22;22676;51.120;3.702;2023-04-15T13:52:00;25.20;40.80
36690;DHT22;22676;51.120;3.702;2023-04-15T13:54:26;25.20;41.00
36690;DHT22;22676;51.120;3.702;2023-04-15T13:56:51;25.30;40.60
36690;DHT22;22676;51.120;3.702;2023-04-15T13:59:17;25.50;40.60
36690;DHT22;22676;51.120;3.702;2023-04-15T14:01:42;25.60;40.50
36690;DHT22;22676;51.120;3.702;2023-04-15T14:04:09;25.60;40.20
36690;DHT22;22676;51.120;3.702;2023-04-15T14:06:34;25.60;40.10
36690;DHT22;22676;51.120;3.702;2023-04-15T14:09:00;25.60;40.10
36690;DHT22;22676;51.120;3.702;2023-04-15T14:11:26;25.70;40.20
36690;DHT22;22676;51.120;3.702;2023-04-15T14:13:51;25.60;40.10
36690;DHT22;22676;51.120;3.702;2023-04-15T14:16:17;25.60;40.10
36690;DHT22;22676;51.120;3.702;2023-04-15T14:18:43;25.60;40.00
36690;DHT22;22676;51.120;3.702;2023-04-15T14:21:08;25.40;40.10
36690;DHT22;22676;51.120;3.702;2023-04-15T14:23:34;25.40;40.20
36690;DHT22;22676;51.120;3.702;2023-04-15T14:26:00;25.20;40.10
36690;DHT22;22676;51.120;3.702;2023-04-15T14:28:25;25.10;40.10
36690;DHT22;22676;51.120;3.702;2023-04-15T14:30:51;25.00;40.20
36690;DHT22;22676;51.120;3.702;2023-04-15T14:33:18;25.20;39.80
36690;DHT22;22676;51.120;3.702;2023-04-15T14:35:43;25.00;39.50
36690;DHT22;22676;51.120;3.702;2023-04-15T14:38:09;25.00;40.10
36690;DHT22;22676;51.120;3.702;2023-04-15T14:40:35;25.00;39.80
36690;DHT22;22676;51.120;3.702;2023-04-15T14:43:01;24.90;39.80
36690;DHT22;22676;51.120;3.702;2023-04-15T14:45:26;24.80;39.90
36690;DHT22;22676;51.120;3.702;2023-04-15T14:47:52;24.80;40.00
36690;DHT22;22676;51.120;3.702;2023-04-15T14:50:17;24.90;40.00
36690;DHT22;22676;51.120;3.702;2023-04-15T14:52:43;25.10;39.30
36690;DHT22;22676;51.120;3.702;2023-04-15T14:55:09;25.20;38.90
36690;DHT22;22676;51.120;3.702;2023-04-15T14:57:36;25.20;38.80
36690;DHT22;22676;51.120;3.702;2023-04-15T15:00:02;25.10;37.80
36690;DHT22;22676;51.120;3.702;2023-04-15T15:02:28;24.90;38.70
36690;DHT22;22676;51.120;3.702;2023-04-15T15:04:53;24.80;38.60
36690;DHT22;22676;51.120;3.702;2023-04-15T15:07:19;24.70;38.80
36690;DHT22;22676;51.120;3.702;2023-04-15T15:09:45;24.70;38.90
36690;DHT22;22676;51.120;3.702;2023-04-15T15:12:10;24.80;38.80
36690;DHT22;22676;51.120;3.702;2023-04-15T15:14:36;24.60;39.00
36690;DHT22;22676;51.120;3.702;2023-04-15T15:17:01;24.60;39.10
36690;DHT22;22676;51.120;3.702;2023-04-15T15:19:27;24.50;39.00
36690;DHT22;22676;51.120;3.702;2023-04-15T15:21:53;24.50;39.30
36690;DHT22;22676;51.120;3.702;2023-04-15T15:24:18;24.40;39.30
36690;DHT22;22676;51.120;3.702;2023-04-15T15:26:44;24.50;38.90
36690;DHT22;22676;51.120;3.702;2023-04-15T15:29:09;24.40;38.70
36690;DHT22;22676;51.120;3.702;2023-04-15T15:31:35;24.20;38.90
36690;DHT22;22676;51.120;3.702;2023-04-15T15:34:00;24.30;38.90
36690;DHT22;22676;51.120;3.702;2023-04-15T15:36:26;24.20;39.00
36690;DHT22;22676;51.120;3.702;2023-04-15T15:38:52;24.10;39.20
36690;DHT22;22676;51.120;3.702;2023-04-15T15:41:17;24.10;39.40